createdAt,value
2023-04-11T00:00:09.072Z,99.90
2023-04-11T00:02:40.479Z,99.90
2023-04-11T00:05:09.977Z,99.90
2023-04-11T00:07:38.377Z,99.90
2023-04-11T00:10:08.322Z,99.90
2023-04-11T00:12:38.083Z,99.90
2023-04-11T00:15:08.767Z,99.90
2023-04-11T00:17:38.543Z,99.90
2023-04-11T00:20:08.535Z,99.90
2023-04-11T00:22:38.967Z,99.90
2023-04-11T00:25:08.250Z,99.90
2023-04-11T00:27:37.945Z,99.90
2023-04-11T00:30:08.057Z,99.90
2023-04-11T00:32:36.413Z,99.90
2023-04-11T00:35:05.077Z,99.90
2023-04-11T00:37:36.092Z,99.90
2023-04-11T00:40:06.644Z,99.90
2023-04-11T00:42:35.427Z,99.90
2023-04-11T00:45:05.681Z,99.90
2023-04-11T00:47:34.568Z,99.90
2023-04-11T00:50:03.714Z,99.90
2023-04-11T00:52:32.358Z,99.90
2023-04-11T00:55:03.214Z,99.90
2023-04-11T00:57:32.312Z,99.90
2023-04-11T01:00:03.050Z,99.90
2023-04-11T01:02:33.497Z,99.90
2023-04-11T01:05:02.265Z,99.90
2023-04-11T01:07:32.222Z,99.90
2023-04-11T01:10:02.380Z,99.90
2023-04-11T01:12:31.459Z,99.90
2023-04-11T01:15:00.292Z,99.90
2023-04-11T01:17:28.769Z,99.90
2023-04-11T01:19:58.672Z,99.90
2023-04-11T01:22:27.998Z,99.90
2023-04-11T01:24:57.921Z,99.90
2023-04-11T01:27:26.622Z,99.90
2023-04-11T01:29:54.946Z,99.90
2023-04-11T01:32:23.321Z,99.90
2023-04-11T01:34:54.685Z,99.90
2023-04-11T01:37:22.992Z,99.90
2023-04-11T01:39:51.690Z,99.90
2023-04-11T01:42:23.667Z,99.90
2023-04-11T01:44:54.624Z,99.90
2023-04-11T01:47:23.101Z,99.90
2023-04-11T01:49:53.699Z,99.90
2023-04-11T01:52:22.029Z,99.90
2023-04-11T01:54:50.492Z,99.90
2023-04-11T01:57:18.845Z,99.90
2023-04-11T01:59:48.694Z,99.90
2023-04-11T02:02:17.390Z,99.90
2023-04-11T02:04:45.915Z,99.90
2023-04-11T02:07:16.209Z,99.90
2023-04-11T02:09:44.550Z,99.90
2023-04-11T02:12:12.890Z,99.90
2023-04-11T02:14:43.673Z,99.90
2023-04-11T02:17:15.242Z,99.90
2023-04-11T02:19:45.421Z,99.90
2023-04-11T02:22:14.279Z,99.90
2023-04-11T02:24:43.136Z,99.90
2023-04-11T02:27:12.574Z,99.90
2023-04-11T02:29:40.978Z,99.90
2023-04-11T02:32:10.227Z,99.90
2023-04-11T02:34:40.018Z,99.90
2023-04-11T02:37:08.356Z,99.90
2023-04-11T02:39:36.718Z,99.90
2023-04-11T02:42:05.063Z,99.90
2023-04-11T02:44:34.122Z,99.90
2023-04-11T02:47:03.013Z,99.90
2023-04-11T02:49:31.671Z,99.90
2023-04-11T02:52:02.419Z,99.90
2023-04-11T02:54:30.754Z,99.90
2023-04-11T02:57:03.756Z,99.90
2023-04-11T02:59:32.201Z,99.90
2023-04-11T03:02:03.037Z,99.90
2023-04-11T03:04:32.450Z,99.90
2023-04-11T03:07:15.250Z,99.90
2023-04-11T03:09:43.746Z,99.90
2023-04-11T03:12:14.737Z,99.90
2023-04-11T03:14:53.270Z,99.90
2023-04-11T03:17:22.928Z,99.90
2023-04-11T03:19:51.565Z,99.90
2023-04-11T03:22:21.225Z,99.90
2023-04-11T03:24:50.492Z,99.90
2023-04-11T03:27:21.880Z,99.90
2023-04-11T03:29:54.903Z,99.90
2023-04-11T03:32:29.840Z,99.90
2023-04-11T03:35:01.425Z,99.90
2023-04-11T03:37:31.438Z,99.90
2023-04-11T03:39:59.864Z,99.90
2023-04-11T03:42:28.423Z,99.90
2023-04-11T03:45:00.855Z,99.90
2023-04-11T03:47:29.124Z,99.90
2023-04-11T03:49:58.023Z,99.90
2023-04-11T03:52:26.334Z,99.90
2023-04-11T03:54:56.122Z,99.90
2023-04-11T03:57:28.142Z,99.90
2023-04-11T03:59:57.537Z,99.90
2023-04-11T04:02:26.289Z,99.90
2023-04-11T04:04:58.429Z,99.90
2023-04-11T04:07:31.952Z,99.90
2023-04-11T04:10:11.865Z,99.90
2023-04-11T04:12:42.320Z,99.90
2023-04-11T04:15:16.966Z,99.90
2023-04-11T04:17:48.103Z,99.90
2023-04-11T04:20:39.284Z,99.90
2023-04-11T04:23:07.652Z,99.90
2023-04-11T04:26:02.339Z,99.90
2023-04-11T04:28:33.748Z,99.90
2023-04-11T04:31:04.942Z,99.90
2023-04-11T04:33:42.958Z,99.90
2023-04-11T04:36:19.826Z,99.90
2023-04-11T04:38:50.474Z,99.90
2023-04-11T04:41:22.131Z,99.90
2023-04-11T04:43:58.349Z,99.90
2023-04-11T04:46:41.801Z,99.90
2023-04-11T04:49:10.779Z,99.90
2023-04-11T04:51:40.336Z,99.90
2023-04-11T04:54:08.960Z,99.90
2023-04-11T04:56:39.670Z,99.90
2023-04-11T04:59:14.633Z,99.90
2023-04-11T05:01:44.636Z,99.90
2023-04-11T05:04:13.551Z,99.90
2023-04-11T05:06:55.543Z,99.90
2023-04-11T05:09:24.552Z,99.90
2023-04-11T05:11:58.080Z,99.90
2023-04-11T05:14:29.182Z,99.90
2023-04-11T05:16:57.601Z,99.90
2023-04-11T05:19:26.187Z,99.90
2023-04-11T05:21:55.222Z,99.90
2023-04-11T05:24:23.581Z,99.90
2023-04-11T05:26:53.452Z,99.90
2023-04-11T05:29:23.726Z,99.90
2023-04-11T05:31:52.479Z,99.90
2023-04-11T05:34:21.218Z,99.90
2023-04-11T05:36:51.200Z,99.90
2023-04-11T05:39:19.539Z,99.90
2023-04-11T05:41:47.908Z,99.90
2023-04-11T05:44:16.230Z,99.90
2023-04-11T05:46:45.918Z,99.90
2023-04-11T05:49:14.364Z,99.90
2023-04-11T05:51:42.701Z,99.90
2023-04-11T05:54:10.998Z,99.90
2023-04-11T05:56:42.406Z,99.90
2023-04-11T05:59:10.706Z,99.90
2023-04-11T06:01:39.943Z,99.90
2023-04-11T06:04:09.799Z,99.90
2023-04-11T06:06:38.320Z,99.90
2023-04-11T06:09:09.123Z,99.90
2023-04-11T06:11:40.776Z,99.90
2023-04-11T06:14:10.214Z,99.90
2023-04-11T06:16:38.868Z,99.90
2023-04-11T06:19:07.207Z,99.90
2023-04-11T06:21:36.906Z,99.90
2023-04-11T06:24:09.797Z,99.90
2023-04-11T06:26:38.357Z,99.90
2023-04-11T06:29:07.614Z,99.90
2023-04-11T06:31:36.194Z,99.90
2023-04-11T06:34:04.498Z,99.90
2023-04-11T06:36:32.835Z,99.90
2023-04-11T06:39:02.567Z,99.90
2023-04-11T06:41:30.942Z,99.90
2023-04-11T06:43:59.474Z,99.90
2023-04-11T06:46:27.990Z,99.90
2023-04-11T06:48:56.301Z,99.90
2023-04-11T06:51:24.685Z,99.90
2023-04-11T06:53:54.387Z,99.90
2023-04-11T06:56:25.496Z,99.90
2023-04-11T06:58:54.662Z,99.90
2023-04-11T07:01:26.221Z,99.90
2023-04-11T07:03:55.697Z,99.90
2023-04-11T07:06:24.567Z,99.90
2023-04-11T07:08:53.549Z,99.90
2023-04-11T07:11:21.960Z,99.90
2023-04-11T07:13:52.106Z,99.90
2023-04-11T07:16:20.496Z,99.50
2023-04-11T07:18:49.363Z,98.20
2023-04-11T07:21:17.668Z,97.90
2023-04-11T07:23:46.162Z,97.50
2023-04-11T07:26:16.992Z,95.40
2023-04-11T07:28:46.110Z,93.80
2023-04-11T07:31:18.079Z,91.10
2023-04-11T07:33:46.490Z,85.40
2023-04-11T07:36:14.869Z,85.10
2023-04-11T07:38:43.161Z,85.60
2023-04-11T07:41:11.503Z,83.70
2023-04-11T07:43:40.654Z,79.60
2023-04-11T07:46:09.270Z,78.20
2023-04-11T07:48:39.185Z,72.90
2023-04-11T07:51:07.678Z,66.90
2023-04-11T07:53:36.414Z,62.60
2023-04-11T07:56:05.145Z,59.50
2023-04-11T07:58:33.672Z,58.00
2023-04-11T08:01:02.701Z,56.50
2023-04-11T08:03:31.622Z,58.00
2023-04-11T08:06:01.700Z,58.80
2023-04-11T08:08:30.063Z,59.00
2023-04-11T08:10:58.373Z,58.80
2023-04-11T08:13:26.807Z,60.00
2023-04-11T08:15:55.304Z,59.80
2023-04-11T08:18:24.209Z,59.80
2023-04-11T08:20:52.949Z,58.30
2023-04-11T08:23:22.757Z,57.80
2023-04-11T08:25:51.184Z,58.60
2023-04-11T08:28:19.690Z,59.80
2023-04-11T08:30:48.019Z,62.30
2023-04-11T08:33:16.539Z,63.50
2023-04-11T08:35:44.914Z,64.90
2023-04-11T08:38:13.460Z,65.60
2023-04-11T08:40:43.210Z,65.70
2023-04-11T08:43:13.024Z,66.00
2023-04-11T08:45:41.592Z,66.80
2023-04-11T08:48:12.419Z,68.70
2023-04-11T08:50:41.950Z,69.00
2023-04-11T08:53:11.011Z,69.10
2023-04-11T08:55:47.813Z,69.40
2023-04-11T08:58:16.711Z,70.30
2023-04-11T09:00:45.936Z,70.10
2023-04-11T09:03:16.547Z,68.70
2023-04-11T09:05:46.674Z,69.80
2023-04-11T09:08:16.369Z,71.00
2023-04-11T09:10:47.209Z,69.30
2023-04-11T09:13:22.522Z,69.30
2023-04-11T09:16:06.030Z,70.60
2023-04-11T09:18:36.095Z,70.70
2023-04-11T09:21:06.415Z,70.10
2023-04-11T09:23:35.556Z,70.30
2023-04-11T09:26:06.735Z,69.40
2023-04-11T09:28:43.089Z,68.50
2023-04-11T09:31:13.064Z,68.50
2023-04-11T09:33:54.342Z,68.60
2023-04-11T09:36:24.956Z,68.10
2023-04-11T09:38:53.982Z,69.20
2023-04-11T09:41:33.176Z,67.70
2023-04-11T09:44:01.931Z,67.00
2023-04-11T09:46:30.403Z,67.10
2023-04-11T09:49:01.834Z,67.80
2023-04-11T09:51:36.389Z,68.30
2023-04-11T09:54:06.495Z,68.60
2023-04-11T09:56:37.618Z,68.30
2023-04-11T09:59:06.093Z,68.40
2023-04-11T10:01:34.640Z,67.50
2023-04-11T10:04:04.493Z,66.90
2023-04-11T10:06:38.856Z,68.20
2023-04-11T10:09:09.759Z,70.10
2023-04-11T10:11:43.250Z,70.30
2023-04-11T10:14:42.375Z,68.70
2023-04-11T10:17:22.208Z,67.70
2023-04-11T10:19:56.481Z,68.40
2023-04-11T10:22:59.783Z,69.00
2023-04-11T10:25:28.412Z,70.30
2023-04-11T10:28:01.076Z,71.30
2023-04-11T10:31:00.505Z,70.70
2023-04-11T10:33:29.036Z,71.70
2023-04-11T10:35:59.094Z,71.40
2023-04-11T10:38:49.996Z,71.50
2023-04-11T10:41:31.835Z,71.40
2023-04-11T10:44:18.205Z,71.90
2023-04-11T10:46:52.104Z,72.90
2023-04-11T10:49:34.778Z,72.60
2023-04-11T10:52:22.778Z,73.70
2023-04-11T10:54:52.650Z,74.00
2023-04-11T10:57:23.006Z,72.80
2023-04-11T11:00:09.389Z,73.20
2023-04-11T11:02:41.600Z,74.40
2023-04-11T11:05:18.284Z,75.40
2023-04-11T11:07:51.125Z,76.50
2023-04-11T11:10:41.133Z,77.00
2023-04-11T11:13:10.047Z,77.40
2023-04-11T11:15:39.937Z,76.70
2023-04-11T11:18:10.721Z,77.80
2023-04-11T11:20:39.159Z,79.80
2023-04-11T11:23:09.838Z,78.60
2023-04-11T11:25:38.414Z,78.50
2023-04-11T11:28:08.092Z,78.20
2023-04-11T11:30:37.358Z,78.10
2023-04-11T11:33:20.434Z,77.60
2023-04-11T11:35:53.998Z,75.70
2023-04-11T11:38:23.831Z,76.20
2023-04-11T11:40:52.853Z,75.30
2023-04-11T11:43:21.272Z,75.50
2023-04-11T11:46:08.855Z,76.00
2023-04-11T11:48:39.122Z,76.50
2023-04-11T11:51:07.873Z,76.70
2023-04-11T11:53:36.635Z,76.10
2023-04-11T11:56:15.597Z,76.70
2023-04-11T11:58:45.223Z,76.40
2023-04-11T12:01:16.117Z,76.90
2023-04-11T12:03:51.490Z,77.40
2023-04-11T12:06:22.401Z,77.70
2023-04-11T12:08:53.903Z,78.60
2023-04-11T12:11:22.685Z,77.90
2023-04-11T12:13:54.362Z,76.80
2023-04-11T12:16:24.124Z,78.00
2023-04-11T12:18:53.902Z,79.30
2023-04-11T12:21:22.243Z,79.30
2023-04-11T12:23:50.596Z,80.30
2023-04-11T12:26:20.156Z,80.60
2023-04-11T12:28:49.414Z,79.40
2023-04-11T12:31:17.996Z,78.70
2023-04-11T12:33:46.370Z,78.20
2023-04-11T12:36:16.183Z,77.80
2023-04-11T12:38:44.470Z,78.00
2023-04-11T12:41:31.030Z,76.70
2023-04-11T12:44:02.424Z,77.30
2023-04-11T12:46:30.975Z,77.90
2023-04-11T12:48:59.318Z,77.80
2023-04-11T12:51:29.025Z,77.50
2023-04-11T12:53:57.423Z,78.70
2023-04-11T12:56:25.742Z,79.00
2023-04-11T12:58:54.350Z,79.50
2023-04-11T13:01:23.649Z,80.10
2023-04-11T13:03:52.100Z,80.40
2023-04-11T13:06:20.650Z,79.70
2023-04-11T13:08:50.620Z,79.60
2023-04-11T13:11:18.961Z,80.30
2023-04-11T13:13:47.297Z,80.50
2023-04-11T13:16:15.940Z,79.80
2023-04-11T13:18:44.341Z,79.60
2023-04-11T13:21:12.704Z,78.60
2023-04-11T13:23:41.131Z,79.50
2023-04-11T13:26:10.995Z,79.00
2023-04-11T13:28:39.398Z,78.60
2023-04-11T13:31:10.444Z,77.90
2023-04-11T13:33:40.518Z,77.50
2023-04-11T13:36:10.104Z,78.20
2023-04-11T13:38:38.676Z,78.30
2023-04-11T13:41:07.430Z,77.40
2023-04-11T13:43:37.295Z,77.20
2023-04-11T13:46:06.023Z,77.40
2023-04-11T13:48:34.494Z,77.20
2023-04-11T13:51:02.879Z,77.70
2023-04-11T13:53:31.542Z,77.50
2023-04-11T13:55:59.846Z,77.90
2023-04-11T13:58:28.254Z,77.60
2023-04-11T14:00:58.121Z,78.00
2023-04-11T14:03:29.581Z,77.20
2023-04-11T14:05:58.120Z,78.30
2023-04-11T14:08:26.536Z,78.70
2023-04-11T14:10:54.993Z,78.80
2023-04-11T14:13:23.494Z,77.50
2023-04-11T14:16:01.330Z,77.40
2023-04-11T14:18:35.037Z,77.60
2023-04-11T14:21:04.722Z,77.90
2023-04-11T14:23:33.209Z,78.20
2023-04-11T14:26:02.051Z,78.40
2023-04-11T14:28:30.739Z,78.60
2023-04-11T14:30:59.195Z,79.10
2023-04-11T14:33:27.605Z,78.70
2023-04-11T14:35:57.544Z,78.80
2023-04-11T14:38:25.975Z,78.90
2023-04-11T14:40:54.505Z,79.00
2023-04-11T14:43:22.948Z,79.20
2023-04-11T14:45:51.304Z,79.70
2023-04-11T14:48:19.616Z,79.80
2023-04-11T14:50:47.914Z,80.00
2023-04-11T14:53:18.145Z,80.30
2023-04-11T14:55:46.725Z,80.30
2023-04-11T14:58:15.141Z,80.30
2023-04-11T15:00:43.470Z,80.10
2023-04-11T15:03:12.591Z,79.80
2023-04-11T15:05:41.159Z,79.90
2023-04-11T15:08:10.014Z,79.10
2023-04-11T15:10:39.874Z,80.10
2023-04-11T15:13:09.220Z,81.10
2023-04-11T15:15:38.053Z,81.40
2023-04-11T15:18:24.665Z,81.20
2023-04-11T15:20:53.515Z,81.20
2023-04-11T15:23:22.379Z,81.90
2023-04-11T15:25:55.608Z,82.30
2023-04-11T15:28:25.592Z,83.10
2023-04-11T15:30:55.397Z,83.40
2023-04-11T15:33:24.729Z,82.60
2023-04-11T15:35:54.391Z,83.00
2023-04-11T15:38:23.140Z,82.70
2023-04-11T15:40:52.394Z,83.40
2023-04-11T15:43:22.827Z,84.10
2023-04-11T15:45:52.304Z,83.80
2023-04-11T15:48:20.720Z,84.30
2023-04-11T15:50:49.080Z,84.50
2023-04-11T15:53:17.389Z,85.20
2023-04-11T15:55:47.121Z,85.40
2023-04-11T15:58:15.674Z,86.00
2023-04-11T16:00:47.174Z,85.90
2023-04-11T16:03:16.624Z,85.70
2023-04-11T16:05:45.751Z,85.30
2023-04-11T16:08:14.067Z,85.40
2023-04-11T16:10:42.428Z,85.20
2023-04-11T16:13:10.977Z,85.10
2023-04-11T16:15:39.358Z,84.90
2023-04-11T16:18:09.223Z,85.80
2023-04-11T16:20:37.566Z,86.10
2023-04-11T16:23:06.010Z,86.10
2023-04-11T16:25:34.419Z,86.20
2023-04-11T16:28:02.694Z,86.40
2023-04-11T16:30:31.495Z,87.00
2023-04-11T16:33:00.134Z,87.50
2023-04-11T16:35:30.022Z,87.80
2023-04-11T16:37:58.334Z,88.10
2023-04-11T16:40:26.639Z,88.30
2023-04-11T16:42:54.952Z,88.70
2023-04-11T16:45:23.330Z,89.30
2023-04-11T16:47:51.775Z,89.80
2023-04-11T16:50:20.548Z,90.30
2023-04-11T16:52:50.288Z,90.30
2023-04-11T16:55:19.070Z,90.50
2023-04-11T16:57:47.669Z,90.60
2023-04-11T17:00:20.193Z,90.50
2023-04-11T17:02:48.756Z,90.70
2023-04-11T17:05:19.051Z,91.00
2023-04-11T17:07:51.658Z,91.00
2023-04-11T17:10:22.787Z,91.20
2023-04-11T17:12:51.274Z,91.20
2023-04-11T17:15:19.619Z,91.20
2023-04-11T17:17:47.914Z,91.40
2023-04-11T17:20:16.584Z,91.30
2023-04-11T17:22:45.071Z,91.70
2023-04-11T17:25:14.956Z,91.70
2023-04-11T17:27:43.263Z,92.30
2023-04-11T17:30:12.305Z,92.40
2023-04-11T17:32:40.864Z,92.80
2023-04-11T17:35:09.943Z,95.70
2023-04-11T17:37:39.981Z,96.30
2023-04-11T17:40:12.775Z,97.00
2023-04-11T17:42:42.650Z,97.10
2023-04-11T17:45:17.615Z,97.30
2023-04-11T17:47:47.132Z,97.60
2023-04-11T17:50:16.007Z,98.00
2023-04-11T17:52:45.376Z,98.90
2023-04-11T17:55:17.076Z,99.10
2023-04-11T17:57:48.885Z,99.80
2023-04-11T18:00:22.450Z,99.90
2023-04-11T18:02:52.942Z,99.90
2023-04-11T18:05:25.201Z,99.90
2023-04-11T18:07:56.596Z,99.90
2023-04-11T18:10:27.223Z,99.90
2023-04-11T18:12:58.719Z,99.90
2023-04-11T18:15:27.913Z,99.90
2023-04-11T18:17:56.326Z,99.90
2023-04-11T18:20:24.752Z,99.90
2023-04-11T18:22:56.360Z,99.90
2023-04-11T18:25:25.024Z,99.90
2023-04-11T18:27:53.492Z,99.90
2023-04-11T18:30:23.270Z,99.90
2023-04-11T18:32:54.979Z,99.90
2023-04-11T18:35:24.914Z,99.90
2023-04-11T18:37:54.128Z,99.90
2023-04-11T18:40:22.451Z,99.90
2023-04-11T18:42:53.270Z,99.90
2023-04-11T18:45:23.999Z,99.90
2023-04-11T18:47:52.617Z,99.90
2023-04-11T18:50:21.695Z,99.90
2023-04-11T18:52:53.911Z,99.90
2023-04-11T18:55:25.098Z,99.90
2023-04-11T18:57:57.237Z,99.90
2023-04-11T19:00:31.950Z,99.90
2023-04-11T19:03:00.944Z,99.90
2023-04-11T19:05:30.872Z,99.90
2023-04-11T19:08:00.858Z,99.90
2023-04-11T19:10:30.415Z,99.90
2023-04-11T19:12:59.092Z,99.90
2023-04-11T19:15:29.458Z,99.90
2023-04-11T19:17:58.905Z,99.90
2023-04-11T19:20:28.731Z,99.90
2023-04-11T19:22:57.677Z,99.90
2023-04-11T19:25:27.876Z,99.90
2023-04-11T19:27:58.436Z,99.90
2023-04-11T19:30:28.695Z,99.90
2023-04-11T19:32:58.731Z,99.90
2023-04-11T19:35:28.141Z,99.90
2023-04-11T19:38:00.493Z,99.90
2023-04-11T19:40:32.004Z,99.90
2023-04-11T19:43:02.595Z,99.90
2023-04-11T19:45:33.252Z,99.90
2023-04-11T19:48:02.969Z,99.90
2023-04-11T19:50:32.313Z,99.90
2023-04-11T19:53:02.368Z,99.90
2023-04-11T19:55:32.503Z,99.90
2023-04-11T19:58:01.822Z,99.90
2023-04-11T20:00:36.260Z,99.90
2023-04-11T20:03:05.952Z,99.90
2023-04-11T20:05:34.798Z,99.90
2023-04-11T20:08:03.570Z,99.90
2023-04-11T20:10:34.288Z,99.90
2023-04-11T20:13:02.758Z,99.90
2023-04-11T20:15:37.875Z,99.90
2023-04-11T20:18:06.536Z,99.90
2023-04-11T20:20:36.930Z,99.90
2023-04-11T20:23:08.381Z,99.90
2023-04-11T20:25:36.907Z,99.90
2023-04-11T20:28:05.649Z,99.90
2023-04-11T20:30:34.925Z,99.90
2023-04-11T20:33:04.923Z,99.90
2023-04-11T20:35:34.359Z,99.90
2023-04-11T20:38:02.984Z,99.90
2023-04-11T20:40:31.783Z,99.90
2023-04-11T20:43:02.100Z,99.90
2023-04-11T20:45:32.943Z,99.90
2023-04-11T20:48:01.977Z,99.90
2023-04-11T20:50:33.473Z,99.90
2023-04-11T20:53:02.825Z,99.90
2023-04-11T20:55:33.343Z,99.90
2023-04-11T20:58:02.562Z,99.90
2023-04-11T21:00:31.686Z,99.90
2023-04-11T21:03:00.352Z,99.90
2023-04-11T21:05:29.705Z,99.90
2023-04-11T21:07:59.502Z,99.90
2023-04-11T21:10:27.967Z,99.90
2023-04-11T21:12:56.402Z,99.90
2023-04-11T21:15:25.530Z,99.90
2023-04-11T21:17:53.996Z,99.90
2023-04-11T21:20:23.198Z,99.90
2023-04-11T21:22:53.915Z,99.90
2023-04-11T21:25:25.816Z,99.90
2023-04-11T21:27:54.291Z,99.90
2023-04-11T21:30:22.876Z,99.90
2023-04-11T21:32:52.009Z,99.90
2023-04-11T21:35:20.488Z,99.90
2023-04-11T21:37:49.379Z,99.90
2023-04-11T21:40:18.038Z,99.90
2023-04-11T21:42:47.701Z,99.90
2023-04-11T21:45:16.259Z,99.90
2023-04-11T21:47:44.723Z,99.90
2023-04-11T21:50:13.187Z,99.90
2023-04-11T21:52:41.571Z,99.90
2023-04-11T21:55:11.544Z,99.90
2023-04-11T21:57:39.868Z,99.90
2023-04-11T22:00:11.881Z,99.90
2023-04-11T22:02:40.915Z,99.90
2023-04-11T22:05:09.962Z,99.90
2023-04-11T22:07:47.347Z,99.90
2023-04-11T22:10:22.292Z,99.90
2023-04-11T22:12:53.889Z,99.90
2023-04-11T22:15:24.196Z,99.90
2023-04-11T22:17:54.475Z,99.90
2023-04-11T22:20:23.092Z,99.90
2023-04-11T22:22:51.408Z,99.90
2023-04-11T22:25:22.703Z,99.90
2023-04-11T22:27:54.300Z,99.90
2023-04-11T22:30:24.948Z,99.90
2023-04-11T22:33:14.045Z,99.90
2023-04-11T22:35:43.981Z,99.90
2023-04-11T22:38:12.446Z,99.90
2023-04-11T22:40:41.269Z,99.90
2023-04-11T22:43:09.871Z,99.90
2023-04-11T22:45:40.154Z,99.90
2023-04-11T22:48:08.620Z,99.90
2023-04-11T22:50:38.060Z,99.90
2023-04-11T22:53:09.572Z,99.90
2023-04-11T22:55:40.100Z,99.90
2023-04-11T22:58:08.795Z,99.90
2023-04-11T23:00:38.539Z,99.90
2023-04-11T23:03:08.431Z,99.90
2023-04-11T23:05:39.547Z,99.90
2023-04-11T23:08:08.134Z,99.90
2023-04-11T23:10:36.787Z,99.90
2023-04-11T23:13:05.397Z,99.90
2023-04-11T23:15:34.243Z,99.90
2023-04-11T23:18:02.655Z,99.90
2023-04-11T23:20:35.248Z,99.90
2023-04-11T23:23:04.178Z,99.90
2023-04-11T23:25:32.432Z,99.90
2023-04-11T23:28:00.814Z,99.90
2023-04-11T23:30:29.876Z,99.90
2023-04-11T23:32:58.347Z,99.90
2023-04-11T23:35:26.683Z,99.90
2023-04-11T23:37:56.348Z,99.90
2023-04-11T23:40:24.656Z,99.90
2023-04-11T23:42:52.970Z,99.90
2023-04-11T23:45:22.645Z,99.90
2023-04-11T23:47:51.034Z,99.90
2023-04-11T23:50:19.820Z,99.90
2023-04-11T23:52:48.154Z,99.90
2023-04-11T23:55:17.848Z,99.90
2023-04-11T23:57:46.183Z,99.90
